createdAt,value
2018-09-29T00:03:17.293Z,13.9
2018-09-29T00:08:15.134Z,13.3
2018-09-29T00:13:12.477Z,13.3
2018-09-29T00:18:09.953Z,13.1
2018-09-29T00:23:07.535Z,13.2
2018-09-29T00:28:04.884Z,13.2
2018-09-29T00:33:02.240Z,13.2
2018-09-29T00:37:59.556Z,13.2
2018-09-29T00:42:56.801Z,13.1
2018-09-29T00:47:54.087Z,13.1
2018-09-29T00:52:51.512Z,13.1
2018-09-29T00:57:48.635Z,13.1
2018-09-29T01:02:46.369Z,13.6
2018-09-29T01:07:43.855Z,13
2018-09-29T01:12:41.413Z,13
2018-09-29T01:17:38.825Z,13
2018-09-29T01:22:35.845Z,13
2018-09-29T01:27:33.361Z,12.9
2018-09-29T01:32:30.882Z,12.9
2018-09-29T01:37:28.232Z,12.9
2018-09-29T01:42:25.264Z,12.9
2018-09-29T01:47:22.643Z,12.9
2018-09-29T01:52:20.231Z,13.4
2018-09-29T01:57:17.699Z,12.8
2018-09-29T02:02:15.131Z,12.8
2018-09-29T02:07:12.911Z,12.7
2018-09-29T02:12:10.776Z,12.7
2018-09-29T02:17:07.824Z,12.8
2018-09-29T02:22:05.171Z,12.7
2018-09-29T02:27:02.632Z,12.7
2018-09-29T02:31:59.635Z,12.6
2018-09-29T02:36:56.882Z,12.7
2018-09-29T02:41:54.753Z,13.2
2018-09-29T02:46:51.636Z,13.2
2018-09-29T02:51:49.287Z,13.2
2018-09-29T02:56:46.786Z,12.5
2018-09-29T03:01:44.149Z,13.1
2018-09-29T03:06:41.577Z,12.6
2018-09-29T03:11:38.777Z,12.5
2018-09-29T03:16:36.047Z,12.5
2018-09-29T03:21:33.031Z,12.5
2018-09-29T03:26:30.634Z,13.1
2018-09-29T03:31:27.794Z,12.4
2018-09-29T03:36:25.280Z,12.4
2018-09-29T03:41:22.854Z,13
2018-09-29T03:46:20.175Z,12.4
2018-09-29T03:51:17.478Z,12.4
2018-09-29T03:56:15.034Z,12.5
2018-09-29T04:01:12.462Z,12.4
2018-09-29T04:06:09.619Z,12.3
2018-09-29T04:11:07.017Z,12.4
2018-09-29T04:16:04.474Z,12.3
2018-09-29T04:21:02.133Z,12.4
2018-09-29T04:25:59.542Z,12.2
2018-09-29T04:30:57.010Z,12.9
2018-09-29T04:35:54.331Z,12.3
2018-09-29T04:40:51.736Z,12.1
2018-09-29T04:45:49.010Z,12.3
2018-09-29T04:50:46.405Z,12.2
2018-09-29T04:55:43.621Z,12.2
2018-09-29T05:00:41.180Z,12.2
2018-09-29T05:05:38.733Z,12.2
2018-09-29T05:10:36.346Z,12.8
2018-09-29T05:15:33.923Z,12.1
2018-09-29T05:20:31.470Z,12.1
2018-09-29T05:25:28.972Z,12.1
2018-09-29T05:30:25.876Z,12.1
2018-09-29T05:35:23.192Z,12.7
2018-09-29T05:40:20.823Z,12.2
2018-09-29T05:45:17.885Z,12.1
2018-09-29T05:50:15.266Z,12.1
2018-09-29T05:55:12.768Z,12.1
2018-09-29T06:00:10.264Z,12.1
2018-09-29T06:05:07.833Z,12.1
2018-09-29T06:10:05.343Z,12.1
2018-09-29T06:15:02.870Z,12.1
2018-09-29T06:20:00.518Z,12
2018-09-29T06:24:57.974Z,12.1
2018-09-29T06:29:55.612Z,12
2018-09-29T06:34:53.276Z,12.6
2018-09-29T06:39:50.677Z,12.1
2018-09-29T06:44:48.164Z,12
2018-09-29T06:49:45.617Z,12.1
2018-09-29T06:54:43.055Z,12.1
2018-09-29T06:59:40.954Z,12.4
2018-09-29T07:04:38.590Z,12.1
2018-09-29T07:09:36.259Z,12.1
2018-09-29T07:14:33.737Z,12
2018-09-29T07:19:30.906Z,12.7
2018-09-29T07:24:28.413Z,12.1
2018-09-29T07:29:25.899Z,12.1
2018-09-29T07:34:23.551Z,12.1
2018-09-29T07:39:20.514Z,12.2
2018-09-29T07:44:17.982Z,12.2
2018-09-29T07:49:15.483Z,11.6
2018-09-29T07:54:13.246Z,12.2
2018-09-29T07:59:10.727Z,12.2
2018-09-29T08:04:08.276Z,12.3
2018-09-29T08:09:05.847Z,12.3
2018-09-29T08:14:03.492Z,12.3
2018-09-29T08:19:01.019Z,12.4
2018-09-29T08:23:58.518Z,12.4
2018-09-29T08:28:56.024Z,12.4
2018-09-29T08:33:53.469Z,12.4
2018-09-29T08:38:50.692Z,12.5
2018-09-29T08:43:48.048Z,12.5
2018-09-29T08:48:45.576Z,12.4
2018-09-29T08:53:42.917Z,12.7
2018-09-29T08:58:40.626Z,12.6
2018-09-29T09:03:37.640Z,13.3
2018-09-29T09:08:35.147Z,12.7
2018-09-29T09:13:32.610Z,12.8
2018-09-29T09:18:30.283Z,12.8
2018-09-29T09:23:27.914Z,12.9
2018-09-29T09:28:25.356Z,13
2018-09-29T09:33:22.834Z,13.1
2018-09-29T09:38:20.326Z,13.1
2018-09-29T09:43:17.870Z,13.2
2018-09-29T09:48:15.514Z,13.3
2018-09-29T09:53:13.256Z,13.3
2018-09-29T09:58:10.798Z,13.3
2018-09-29T10:03:08.539Z,13.4
2018-09-29T10:08:05.842Z,13.5
2018-09-29T10:13:03.347Z,13.5
2018-09-29T10:18:01.050Z,13.5
2018-09-29T10:22:58.604Z,13.4
2018-09-29T10:27:56.188Z,13.7
2018-09-29T10:32:53.779Z,13.7
2018-09-29T10:37:51.548Z,13.7
2018-09-29T10:42:49.103Z,13.8
2018-09-29T10:47:46.987Z,13.9
2018-09-29T10:52:44.458Z,14
2018-09-29T10:57:42.297Z,14.1
2018-09-29T11:02:40.069Z,14.1
2018-09-29T11:07:38.287Z,14.2
2018-09-29T11:12:35.882Z,14.2
2018-09-29T11:17:33.604Z,14.9
2018-09-29T11:22:31.554Z,14.9
2018-09-29T11:27:29.230Z,14.4
2018-09-29T11:32:27.138Z,14.4
2018-09-29T11:37:24.512Z,14.6
2018-09-29T11:42:22.473Z,14.9
2018-09-29T11:47:20.408Z,14.9
2018-09-29T11:52:17.845Z,15.8
2018-09-29T11:57:15.597Z,16.2
2018-09-29T12:02:13.551Z,16.6
2018-09-29T12:07:11.637Z,16.5
2018-09-29T12:12:09.760Z,16.4
2018-09-29T12:17:07.884Z,17.8
2018-09-29T12:22:05.961Z,18
2018-09-29T12:27:04.199Z,18.2
2018-09-29T12:32:01.447Z,18.4
2018-09-29T12:36:59.183Z,18.6
2018-09-29T12:41:56.987Z,18.8
2018-09-29T12:46:54.670Z,18.9
2018-09-29T12:51:52.363Z,18.9
2018-09-29T12:56:50.331Z,18.2
2018-09-29T13:01:47.992Z,19
2018-09-29T13:06:45.681Z,19
2018-09-29T13:11:43.141Z,19
2018-09-29T13:16:40.877Z,17.9
2018-09-29T13:21:38.285Z,19
2018-09-29T13:26:36.982Z,18.3
2018-09-29T13:31:34.529Z,19
2018-09-29T13:36:32.644Z,18.6
2018-09-29T13:46:33.373Z,18.6
2018-09-29T13:51:31.048Z,18.7
2018-09-29T13:56:29.038Z,18.9
2018-09-29T14:01:26.808Z,18.6
2018-09-29T14:06:25.024Z,19.2
2018-09-29T14:11:22.531Z,18.5
2018-09-29T14:16:20.365Z,19.5
2018-09-29T14:21:18.031Z,19.7
2018-09-29T14:26:16.060Z,20.2
2018-09-29T14:31:14.540Z,21.2
2018-09-29T14:36:13.180Z,22.1
2018-09-29T14:41:12.953Z,22.7
2018-09-29T14:46:11.039Z,22.6
2018-09-29T14:51:09.449Z,23
2018-09-29T14:56:07.859Z,23.9
2018-09-29T15:01:06.382Z,23.9
2018-09-29T15:06:04.442Z,24.2
2018-09-29T15:11:02.696Z,24.7
2018-09-29T15:16:00.939Z,25.1
2018-09-29T15:20:59.037Z,25.4
2018-09-29T15:25:56.815Z,26.3
2018-09-29T15:30:56.367Z,26.1
2018-09-29T15:35:56.473Z,26.4
2018-09-29T15:40:54.604Z,26.6
2018-09-29T15:45:52.710Z,26.9
2018-09-29T15:50:50.611Z,27.6
2018-09-29T15:55:49.405Z,27.3
2018-09-29T16:00:47.633Z,27.8
2018-09-29T16:05:45.617Z,28.1
2018-09-29T16:10:46.394Z,28.3
2018-09-29T16:15:45.110Z,27.2
2018-09-29T16:20:43.530Z,28.5
2018-09-29T16:25:41.672Z,28.5
2018-09-29T16:30:39.804Z,28.5
2018-09-29T16:35:37.634Z,28
2018-09-29T16:40:36.168Z,27.8
2018-09-29T16:45:34.590Z,28.1
2018-09-29T16:50:35.687Z,28.5
2018-09-29T16:55:34.348Z,28.5
2018-09-29T17:00:32.232Z,28.4
2018-09-29T17:05:30.009Z,28.1
2018-09-29T17:10:27.602Z,27.6
2018-09-29T17:15:25.572Z,26.8
2018-09-29T17:20:22.952Z,26.6
2018-09-29T17:25:20.714Z,26.4
2018-09-29T17:30:18.409Z,26.6
2018-09-29T17:35:16.885Z,26.6
2018-09-29T17:40:14.314Z,26.6
2018-09-29T17:45:12.111Z,26.5
2018-09-29T17:50:09.934Z,26.8
2018-09-29T17:55:08.390Z,26.3
2018-09-29T18:00:07.168Z,26.2
2018-09-29T18:05:05.953Z,26.1
2018-09-29T18:10:05.026Z,26.5
2018-09-29T18:15:02.813Z,25.9
2018-09-29T18:20:01.333Z,25.9
2018-09-29T18:24:59.497Z,25.9
2018-09-29T18:29:57.366Z,25.9
2018-09-29T18:34:55.399Z,25.8
2018-09-29T18:39:52.994Z,25.7
2018-09-29T18:44:50.671Z,25.7
2018-09-29T18:49:49.132Z,25.6
2018-09-29T18:54:47.063Z,26
2018-09-29T18:59:44.830Z,25.5
2018-09-29T19:04:42.664Z,25.9
2018-09-29T19:09:40.354Z,25.8
2018-09-29T19:14:38.163Z,25.3
2018-09-29T19:19:36.039Z,25.1
2018-09-29T19:24:35.061Z,25
2018-09-29T19:29:32.912Z,25.3
2018-09-29T19:34:30.575Z,24.9
2018-09-29T19:39:29.434Z,24.8
2018-09-29T19:44:27.111Z,24.8
2018-09-29T19:49:24.830Z,24.7
2018-09-29T19:54:22.682Z,24.6
2018-09-29T19:59:20.379Z,24.6
2018-09-29T20:04:18.243Z,25.1
2018-09-29T20:09:16.025Z,24.5
2018-09-29T20:14:13.955Z,25
2018-09-29T20:19:11.971Z,24.4
2018-09-29T20:24:10.026Z,24.4
2018-09-29T20:29:08.589Z,24.9
2018-09-29T20:34:06.641Z,24.3
2018-09-29T20:39:04.316Z,24.3
2018-09-29T20:44:02.159Z,24.3
2018-09-29T20:48:59.930Z,24.3
2018-09-29T20:53:58.086Z,24.2
2018-09-29T20:58:56.132Z,24.2
2018-09-29T21:03:54.256Z,24.1
2018-09-29T21:08:52.099Z,24.1
2018-09-29T21:13:50.418Z,24
2018-09-29T21:18:48.405Z,24.4
2018-09-29T21:23:46.006Z,23.8
2018-09-29T21:28:43.691Z,23.7
2018-09-29T21:33:41.411Z,23.5
2018-09-29T21:38:38.998Z,23.5
2018-09-29T21:43:36.718Z,23.4
2018-09-29T21:48:34.278Z,23.4
2018-09-29T21:53:32.214Z,23.2
2018-09-29T21:58:29.833Z,23.2
2018-09-29T22:03:27.622Z,23.1
2018-09-29T22:08:25.214Z,23.1
2018-09-29T22:13:22.913Z,23
2018-09-29T22:18:20.775Z,22.9
2018-09-29T22:23:18.702Z,22.9
2018-09-29T22:28:16.638Z,22.8
2018-09-29T22:33:14.257Z,22.7
2018-09-29T22:38:12.004Z,22.7
2018-09-29T22:43:09.671Z,22.7
2018-09-29T22:48:07.499Z,22.5
2018-09-29T22:53:05.402Z,22.6
2018-09-29T22:58:03.025Z,22.9
2018-09-29T23:03:01.064Z,22.9
2018-09-29T23:07:58.937Z,22.9
2018-09-29T23:12:56.612Z,22.8
2018-09-29T23:17:54.406Z,22.7
2018-09-29T23:22:52.223Z,22.7
2018-09-29T23:27:49.904Z,22.6
2018-09-29T23:32:47.442Z,22.6
2018-09-29T23:37:45.169Z,22.5
2018-09-29T23:42:42.383Z,22.5
2018-09-29T23:47:39.884Z,22.5
2018-09-29T23:52:38.312Z,22.4
2018-09-29T23:57:36.310Z,22.4
